sensor_id;sensor_type;location;lat;lon;timestamp;pressure;altitude;pressure_sealevel;temperature;humidity
49030;BME280;43337;52.070;4.508;2023-10-09T00:02:22;102181.53;;;15.69;100.00
49030;BME280;43337;52.070;4.508;2023-10-09T00:04:48;102167.94;;;15.54;100.00
49030;BME280;43337;52.070;4.508;2023-10-09T00:07:16;102148.53;;;15.52;100.00
49030;BME280;43337;52.070;4.508;2023-10-09T00:09:42;102182.38;;;15.69;100.00
49030;BME280;43337;52.070;4.508;2023-10-09T00:12:20;102185.09;;;15.68;100.00
49030;BME280;43337;52.070;4.508;2023-10-09T00:14:52;102160.63;;;15.59;100.00
49030;BME280;43337;52.070;4.508;2023-10-09T00:17:21;102186.50;;;15.76;100.00
49030;BME280;43337;52.070;4.508;2023-10-09T00:19:49;102167.50;;;15.65;100.00
49030;BME280;43337;52.070;4.508;2023-10-09T00:22:15;102189.75;;;15.83;100.00
49030;BME280;43337;52.070;4.508;2023-10-09T00:24:49;102181.84;;;15.81;100.00
49030;BME280;43337;52.070;4.508;2023-10-09T00:27:34;102178.13;;;15.85;100.00
49030;BME280;43337;52.070;4.508;2023-10-09T00:30:01;102167.59;;;15.84;100.00
49030;BME280;43337;52.070;4.508;2023-10-09T00:32:26;102183.84;;;15.97;100.00
49030;BME280;43337;52.070;4.508;2023-10-09T00:34:53;102176.88;;;15.94;100.00
49030;BME280;43337;52.070;4.508;2023-10-09T00:37:23;102168.25;;;15.89;100.00
49030;BME280;43337;52.070;4.508;2023-10-09T00:39:49;102182.69;;;16.02;100.00
49030;BME280;43337;52.070;4.508;2023-10-09T00:42:23;102185.97;;;16.09;100.00
49030;BME280;43337;52.070;4.508;2023-10-09T00:44:57;102178.13;;;16.06;100.00
49030;BME280;43337;52.070;4.508;2023-10-09T00:47:28;102164.25;;;15.99;100.00
49030;BME280;43337;52.070;4.508;2023-10-09T00:50:09;102136.38;;;15.89;100.00
49030;BME280;43337;52.070;4.508;2023-10-09T00:52:44;102184.63;;;16.19;100.00
49030;BME280;43337;52.070;4.508;2023-10-09T00:55:15;102169.75;;;16.15;100.00
49030;BME280;43337;52.070;4.508;2023-10-09T00:57:48;102155.53;;;16.16;100.00
49030;BME280;43337;52.070;4.508;2023-10-09T01:00:16;102177.38;;;16.23;100.00
49030;BME280;43337;52.070;4.508;2023-10-09T01:03:01;102162.31;;;16.23;100.00
49030;BME280;43337;52.070;4.508;2023-10-09T01:05:51;102153.38;;;16.24;100.00
49030;BME280;43337;52.070;4.508;2023-10-09T01:08:22;102157.59;;;16.30;100.00
49030;BME280;43337;52.070;4.508;2023-10-09T01:11:16;102149.78;;;16.25;100.00
49030;BME280;43337;52.070;4.508;2023-10-09T01:13:49;102152.06;;;16.34;100.00
49030;BME280;43337;52.070;4.508;2023-10-09T01:16:21;102134.38;;;16.33;100.00
49030;BME280;43337;52.070;4.508;2023-10-09T01:18:52;102112.81;;;16.21;100.00
49030;BME280;43337;52.070;4.508;2023-10-09T01:21:19;102137.69;;;16.39;100.00
49030;BME280;43337;52.070;4.508;2023-10-09T01:23:49;102129.72;;;16.39;100.00
49030;BME280;43337;52.070;4.508;2023-10-09T01:26:28;102129.41;;;16.45;100.00
49030;BME280;43337;52.070;4.508;2023-10-09T01:28:55;102117.19;;;16.41;100.00
49030;BME280;43337;52.070;4.508;2023-10-09T01:31:24;102116.78;;;16.50;100.00
49030;BME280;43337;52.070;4.508;2023-10-09T01:33:51;102086.47;;;16.35;100.00
49030;BME280;43337;52.070;4.508;2023-10-09T01:36:18;102114.03;;;16.51;100.00
49030;BME280;43337;52.070;4.508;2023-10-09T01:38:44;102112.75;;;16.60;100.00
49030;BME280;43337;52.070;4.508;2023-10-09T01:41:13;102114.53;;;16.59;100.00
49030;BME280;43337;52.070;4.508;2023-10-09T01:43:45;102110.75;;;16.65;100.00
49030;BME280;43337;52.070;4.508;2023-10-09T01:46:12;102092.72;;;16.53;100.00
49030;BME280;43337;52.070;4.508;2023-10-09T01:48:41;102105.84;;;16.56;100.00
49030;BME280;43337;52.070;4.508;2023-10-09T01:51:13;102083.84;;;16.52;100.00
49030;BME280;43337;52.070;4.508;2023-10-09T01:53:43;102115.13;;;16.66;100.00
49030;BME280;43337;52.070;4.508;2023-10-09T01:56:11;102079.78;;;16.45;100.00
49030;BME280;43337;52.070;4.508;2023-10-09T01:58:42;102102.75;;;16.65;100.00
49030;BME280;43337;52.070;4.508;2023-10-09T02:01:12;102083.84;;;16.52;100.00
49030;BME280;43337;52.070;4.508;2023-10-09T02:03:39;102094.69;;;16.67;100.00
49030;BME280;43337;52.070;4.508;2023-10-09T02:06:07;102090.56;;;16.61;100.00
49030;BME280;43337;52.070;4.508;2023-10-09T02:08:51;102094.94;;;16.62;100.00
49030;BME280;43337;52.070;4.508;2023-10-09T02:11:16;102082.72;;;16.58;100.00
49030;BME280;43337;52.070;4.508;2023-10-09T02:13:52;102068.72;;;16.54;100.00
49030;BME280;43337;52.070;4.508;2023-10-09T02:16:26;102078.03;;;16.63;100.00
49030;BME280;43337;52.070;4.508;2023-10-09T02:18:55;102070.28;;;16.58;100.00
49030;BME280;43337;52.070;4.508;2023-10-09T02:21:24;102071.78;;;16.64;100.00
49030;BME280;43337;52.070;4.508;2023-10-09T02:24:02;102083.22;;;16.66;100.00
49030;BME280;43337;52.070;4.508;2023-10-09T02:26:34;102092.75;;;16.70;100.00
49030;BME280;43337;52.070;4.508;2023-10-09T02:29:26;102091.03;;;16.69;100.00
49030;BME280;43337;52.070;4.508;2023-10-09T02:31:51;102096.09;;;16.75;100.00
49030;BME280;43337;52.070;4.508;2023-10-09T02:34:17;102091.72;;;16.74;100.00
49030;BME280;43337;52.070;4.508;2023-10-09T02:36:50;102083.94;;;16.70;100.00
49030;BME280;43337;52.070;4.508;2023-10-09T02:39:24;102064.69;;;16.65;100.00
49030;BME280;43337;52.070;4.508;2023-10-09T02:41:51;102098.47;;;16.81;100.00
49030;BME280;43337;52.070;4.508;2023-10-09T02:44:16;102082.41;;;16.83;100.00
49030;BME280;43337;52.070;4.508;2023-10-09T02:46:49;102058.09;;;16.72;100.00
49030;BME280;43337;52.070;4.508;2023-10-09T02:49:15;102080.56;;;16.85;100.00
49030;BME280;43337;52.070;4.508;2023-10-09T02:51:41;102068.34;;;16.81;100.00
49030;BME280;43337;52.070;4.508;2023-10-09T02:54:07;102047.56;;;16.70;100.00
49030;BME280;43337;52.070;4.508;2023-10-09T02:56:43;102047.91;;;16.81;100.00
49030;BME280;43337;52.070;4.508;2023-10-09T02:59:09;102053.00;;;16.86;100.00
49030;BME280;43337;52.070;4.508;2023-10-09T03:01:36;102062.56;;;16.90;100.00
49030;BME280;43337;52.070;4.508;2023-10-09T03:04:03;102060.03;;;16.87;100.00
49030;BME280;43337;52.070;4.508;2023-10-09T03:06:33;102047.91;;;16.81;100.00
49030;BME280;43337;52.070;4.508;2023-10-09T03:09:05;102050.34;;;16.86;100.00
49030;BME280;43337;52.070;4.508;2023-10-09T03:11:49;102051.53;;;16.98;100.00
49030;BME280;43337;52.070;4.508;2023-10-09T03:14:19;102057.72;;;16.98;100.00
49030;BME280;43337;52.070;4.508;2023-10-09T03:16:45;102046.69;;;16.89;100.00
49030;BME280;43337;52.070;4.508;2023-10-09T03:19:13;102049.56;;;16.84;100.00
49030;BME280;43337;52.070;4.508;2023-10-09T03:21:39;102064.59;;;17.02;100.00
49030;BME280;43337;52.070;4.508;2023-10-09T03:24:04;102059.53;;;16.98;100.00
49030;BME280;43337;52.070;4.508;2023-10-09T03:26:30;102067.44;;;16.99;100.00
49030;BME280;43337;52.070;4.508;2023-10-09T03:28:56;102051.00;;;16.91;100.00
49030;BME280;43337;52.070;4.508;2023-10-09T03:31:26;102091.31;;;17.01;100.00
49030;BME280;43337;52.070;4.508;2023-10-09T03:33:52;102098.34;;;17.02;100.00
49030;BME280;43337;52.070;4.508;2023-10-09T03:36:17;102107.03;;;17.05;100.00
49030;BME280;43337;52.070;4.508;2023-10-09T03:38:43;102088.56;;;17.02;100.00
49030;BME280;43337;52.070;4.508;2023-10-09T03:41:09;102099.91;;;17.06;100.00
49030;BME280;43337;52.070;4.508;2023-10-09T03:43:38;102101.84;;;17.02;100.00
49030;BME280;43337;52.070;4.508;2023-10-09T03:46:10;102095.53;;;17.05;100.00
49030;BME280;43337;52.070;4.508;2023-10-09T03:48:40;102087.69;;;17.02;100.00
49030;BME280;43337;52.070;4.508;2023-10-09T03:51:08;102073.53;;;17.01;100.00
49030;BME280;43337;52.070;4.508;2023-10-09T03:53:35;102074.94;;;17.08;100.00
49030;BME280;43337;52.070;4.508;2023-10-09T03:56:08;102074.34;;;17.03;100.00
49030;BME280;43337;52.070;4.508;2023-10-09T03:58:49;102089.06;;;17.11;100.00
49030;BME280;43337;52.070;4.508;2023-10-09T04:01:17;102084.59;;;17.11;100.00
49030;BME280;43337;52.070;4.508;2023-10-09T04:03:57;102073.47;;;17.03;100.00
49030;BME280;43337;52.070;4.508;2023-10-09T04:06:30;102090.91;;;17.08;100.00
49030;BME280;43337;52.070;4.508;2023-10-09T04:09:01;102094.19;;;17.14;100.00
49030;BME280;43337;52.070;4.508;2023-10-09T04:11:54;102088.88;;;17.14;100.00
49030;BME280;43337;52.070;4.508;2023-10-09T04:14:35;102070.19;;;17.15;100.00
49030;BME280;43337;52.070;4.508;2023-10-09T04:17:01;102038.66;;;17.07;100.00
49030;BME280;43337;52.070;4.508;2023-10-09T04:19:30;102029.09;;;17.03;100.00
49030;BME280;43337;52.070;4.508;2023-10-09T04:22:04;102047.00;;;17.17;100.00
49030;BME280;43337;52.070;4.508;2023-10-09T04:24:33;102035.75;;;17.12;100.00
49030;BME280;43337;52.070;4.508;2023-10-09T04:27:06;102061.81;;;17.23;100.00
49030;BME280;43337;52.070;4.508;2023-10-09T04:29:33;102047.81;;;17.19;100.00
49030;BME280;43337;52.070;4.508;2023-10-09T04:32:05;102059.00;;;17.26;100.00
49030;BME280;43337;52.070;4.508;2023-10-09T04:34:41;102026.72;;;16.97;100.00
49030;BME280;43337;52.070;4.508;2023-10-09T04:37:14;102052.72;;;17.09;100.00
49030;BME280;43337;52.070;4.508;2023-10-09T04:39:39;102059.59;;;17.14;100.00
49030;BME280;43337;52.070;4.508;2023-10-09T04:42:15;102077.69;;;17.24;100.00
49030;BME280;43337;52.070;4.508;2023-10-09T04:44:46;102083.13;;;17.23;100.00
49030;BME280;43337;52.070;4.508;2023-10-09T04:47:33;102069.88;;;17.21;100.00
49030;BME280;43337;52.070;4.508;2023-10-09T04:50:06;102063.84;;;17.18;100.00
49030;BME280;43337;52.070;4.508;2023-10-09T04:52:34;102052.66;;;17.11;100.00
49030;BME280;43337;52.070;4.508;2023-10-09T04:55:00;102080.38;;;17.24;100.00
49030;BME280;43337;52.070;4.508;2023-10-09T04:57:32;102084.59;;;17.28;100.00
49030;BME280;43337;52.070;4.508;2023-10-09T05:00:06;102092.00;;;17.22;100.00
49030;BME280;43337;52.070;4.508;2023-10-09T05:02:47;102095.72;;;17.19;100.00
49030;BME280;43337;52.070;4.508;2023-10-09T05:05:26;102109.97;;;17.18;100.00
49030;BME280;43337;52.070;4.508;2023-10-09T05:08:16;102105.25;;;17.23;100.00
49030;BME280;43337;52.070;4.508;2023-10-09T05:10:53;102109.88;;;17.20;100.00
49030;BME280;43337;52.070;4.508;2023-10-09T05:13:25;102105.97;;;17.27;100.00
49030;BME280;43337;52.070;4.508;2023-10-09T05:16:07;102099.94;;;17.23;100.00
49030;BME280;43337;52.070;4.508;2023-10-09T05:18:38;102116.53;;;17.28;100.00
49030;BME280;43337;52.070;4.508;2023-10-09T05:21:03;102105.25;;;17.23;100.00
49030;BME280;43337;52.070;4.508;2023-10-09T05:23:52;102101.28;;;17.15;100.00
49030;BME280;43337;52.070;4.508;2023-10-09T05:26:36;102126.41;;;17.26;100.00
49030;BME280;43337;52.070;4.508;2023-10-09T05:29:22;102128.91;;;17.29;100.00
49030;BME280;43337;52.070;4.508;2023-10-09T05:32:13;102116.47;;;17.30;100.00
49030;BME280;43337;52.070;4.508;2023-10-09T05:34:42;102111.91;;;17.32;100.00
49030;BME280;43337;52.070;4.508;2023-10-09T05:37:32;102095.00;;;17.33;100.00
49030;BME280;43337;52.070;4.508;2023-10-09T05:40:00;102077.66;;;17.26;100.00
49030;BME280;43337;52.070;4.508;2023-10-09T05:42:35;102083.34;;;17.36;100.00
49030;BME280;43337;52.070;4.508;2023-10-09T05:45:14;102081.69;;;17.33;100.00
49030;BME280;43337;52.070;4.508;2023-10-09T05:47:49;102066.66;;;17.32;100.00
49030;BME280;43337;52.070;4.508;2023-10-09T05:50:24;102059.47;;;17.34;100.00
49030;BME280;43337;52.070;4.508;2023-10-09T05:52:51;102047.88;;;17.35;100.00
49030;BME280;43337;52.070;4.508;2023-10-09T05:55:21;102051.50;;;17.34;100.00
49030;BME280;43337;52.070;4.508;2023-10-09T05:57:49;102076.22;;;17.36;100.00
49030;BME280;43337;52.070;4.508;2023-10-09T06:00:33;102059.69;;;17.29;100.00
49030;BME280;43337;52.070;4.508;2023-10-09T06:03:17;102074.59;;;17.33;100.00
49030;BME280;43337;52.070;4.508;2023-10-09T06:05:53;102063.38;;;17.27;100.00
49030;BME280;43337;52.070;4.508;2023-10-09T06:08:23;102031.03;;;17.17;100.00
49030;BME280;43337;52.070;4.508;2023-10-09T06:11:24;102030.34;;;17.31;100.00
49030;BME280;43337;52.070;4.508;2023-10-09T06:13:59;102035.06;;;17.26;100.00
49030;BME280;43337;52.070;4.508;2023-10-09T06:16:38;102075.75;;;17.28;100.00
49030;BME280;43337;52.070;4.508;2023-10-09T06:19:11;102093.28;;;17.32;100.00
49030;BME280;43337;52.070;4.508;2023-10-09T06:21:41;102086.25;;;17.31;100.00
49030;BME280;43337;52.070;4.508;2023-10-09T06:24:07;102088.28;;;17.26;100.00
49030;BME280;43337;52.070;4.508;2023-10-09T06:26:46;102093.28;;;17.32;100.00
49030;BME280;43337;52.070;4.508;2023-10-09T06:29:23;102119.84;;;17.33;100.00
49030;BME280;43337;52.070;4.508;2023-10-09T06:32:08;102112.78;;;17.32;100.00
49030;BME280;43337;52.070;4.508;2023-10-09T06:34:57;102112.72;;;17.34;100.00
49030;BME280;43337;52.070;4.508;2023-10-09T06:37:52;102095.25;;;17.28;100.00
49030;BME280;43337;52.070;4.508;2023-10-09T06:40:47;102106.03;;;17.25;100.00
49030;BME280;43337;52.070;4.508;2023-10-09T06:43:33;102103.22;;;17.11;100.00
49030;BME280;43337;52.070;4.508;2023-10-09T06:46:02;102124.66;;;17.25;100.00
49030;BME280;43337;52.070;4.508;2023-10-09T06:48:46;102111.53;;;17.22;100.00
49030;BME280;43337;52.070;4.508;2023-10-09T06:51:20;102117.34;;;17.30;100.00
49030;BME280;43337;52.070;4.508;2023-10-09T06:53:55;102118.97;;;17.33;100.00
49030;BME280;43337;52.070;4.508;2023-10-09T06:56:28;102122.50;;;17.33;100.00
49030;BME280;43337;52.070;4.508;2023-10-09T06:59:01;102122.34;;;17.37;100.00
49030;BME280;43337;52.070;4.508;2023-10-09T07:01:46;102084.22;;;17.19;100.00
49030;BME280;43337;52.070;4.508;2023-10-09T07:04:25;102114.19;;;17.40;100.00
49030;BME280;43337;52.070;4.508;2023-10-09T07:06:57;102052.59;;;17.30;100.00
49030;BME280;43337;52.070;4.508;2023-10-09T07:09:27;102064.47;;;17.40;100.00
49030;BME280;43337;52.070;4.508;2023-10-09T07:12:14;102047.25;;;17.30;100.00
49030;BME280;43337;52.070;4.508;2023-10-09T07:14:55;102059.78;;;17.28;100.00
49030;BME280;43337;52.070;4.508;2023-10-09T07:17:46;102037.16;;;17.19;100.00
49030;BME280;43337;52.070;4.508;2023-10-09T07:20:11;102080.91;;;17.48;100.00
49030;BME280;43337;52.070;4.508;2023-10-09T07:22:37;102081.69;;;17.50;100.00
49030;BME280;43337;52.070;4.508;2023-10-09T07:25:18;102075.56;;;17.48;100.00
49030;BME280;43337;52.070;4.508;2023-10-09T07:28:05;102075.22;;;17.39;100.00
49030;BME280;43337;52.070;4.508;2023-10-09T07:30:46;102089.28;;;17.58;100.00
49030;BME280;43337;52.070;4.508;2023-10-09T07:33:12;102096.28;;;17.61;100.00
49030;BME280;43337;52.070;4.508;2023-10-09T07:35:46;102046.94;;;17.53;100.00
49030;BME280;43337;52.070;4.508;2023-10-09T07:38:22;102079.81;;;17.70;100.00
49030;BME280;43337;52.070;4.508;2023-10-09T07:41:14;102032.41;;;17.59;100.00
49030;BME280;43337;52.070;4.508;2023-10-09T07:43:43;102034.13;;;17.60;100.00
49030;BME280;43337;52.070;4.508;2023-10-09T07:46:13;102012.47;;;17.50;100.00
49030;BME280;43337;52.070;4.508;2023-10-09T07:48:58;102053.56;;;17.79;100.00
49030;BME280;43337;52.070;4.508;2023-10-09T07:51:26;102073.28;;;17.93;100.00
49030;BME280;43337;52.070;4.508;2023-10-09T07:53:58;102047.47;;;17.77;100.00
49030;BME280;43337;52.070;4.508;2023-10-09T07:56:33;102081.88;;;17.98;100.00
49030;BME280;43337;52.070;4.508;2023-10-09T07:59:07;102051.69;;;17.81;100.00
49030;BME280;43337;52.070;4.508;2023-10-09T08:04:35;102103.75;;;18.04;100.00
49030;BME280;43337;52.070;4.508;2023-10-09T08:07:24;102106.41;;;18.04;100.00
49030;BME280;43337;52.070;4.508;2023-10-09T08:10:13;102127.16;;;18.15;100.00
49030;BME280;43337;52.070;4.508;2023-10-09T08:12:44;102106.56;;;18.01;100.00
49030;BME280;43337;52.070;4.508;2023-10-09T08:15:12;102132.41;;;18.17;100.00
49030;BME280;43337;52.070;4.508;2023-10-09T08:18:06;102106.66;;;18.00;100.00
49030;BME280;43337;52.070;4.508;2023-10-09T08:20:36;102133.25;;;18.17;100.00
49030;BME280;43337;52.070;4.508;2023-10-09T08:23:20;102151.28;;;18.29;100.00
49030;BME280;43337;52.070;4.508;2023-10-09T08:26:04;102146.56;;;18.35;100.00
49030;BME280;43337;52.070;4.508;2023-10-09T08:28:43;102155.09;;;18.41;100.00
49030;BME280;43337;52.070;4.508;2023-10-09T08:31:11;102159.31;;;18.45;100.00
49030;BME280;43337;52.070;4.508;2023-10-09T08:33:55;102161.63;;;18.51;100.00
49030;BME280;43337;52.070;4.508;2023-10-09T08:36:28;102153.88;;;18.47;100.00
49030;BME280;43337;52.070;4.508;2023-10-09T08:38:55;102176.19;;;18.62;100.00
49030;BME280;43337;52.070;4.508;2023-10-09T08:41:40;102180.31;;;18.67;100.00
49030;BME280;43337;52.070;4.508;2023-10-09T08:44:06;102163.88;;;18.59;100.00
49030;BME280;43337;52.070;4.508;2023-10-09T08:46:32;102198.38;;;18.80;100.00
49030;BME280;43337;52.070;4.508;2023-10-09T08:49:02;102201.69;;;18.83;100.00
49030;BME280;43337;52.070;4.508;2023-10-09T08:51:38;102179.06;;;18.74;100.00
49030;BME280;43337;52.070;4.508;2023-10-09T08:54:09;102159.94;;;18.66;100.00
49030;BME280;43337;52.070;4.508;2023-10-09T08:56:39;102181.03;;;18.87;100.00
49030;BME280;43337;52.070;4.508;2023-10-09T08:59:14;102175.72;;;18.87;100.00
49030;BME280;43337;52.070;4.508;2023-10-09T09:01:45;102181.84;;;18.89;100.00
49030;BME280;43337;52.070;4.508;2023-10-09T09:04:34;102207.41;;;19.09;100.00
49030;BME280;43337;52.070;4.508;2023-10-09T09:06:59;102209.22;;;19.08;100.00
49030;BME280;43337;52.070;4.508;2023-10-09T09:09:25;102199.22;;;19.12;100.00
49030;BME280;43337;52.070;4.508;2023-10-09T09:11:53;102205.94;;;19.19;100.00
49030;BME280;43337;52.070;4.508;2023-10-09T09:14:20;102205.16;;;19.17;100.00
49030;BME280;43337;52.070;4.508;2023-10-09T09:16:47;102213.78;;;19.22;100.00
49030;BME280;43337;52.070;4.508;2023-10-09T09:19:14;102209.19;;;19.24;100.00
49030;BME280;43337;52.070;4.508;2023-10-09T09:21:51;102203.19;;;19.20;100.00
49030;BME280;43337;52.070;4.508;2023-10-09T09:24:37;102202.22;;;19.21;100.00
49030;BME280;43337;52.070;4.508;2023-10-09T09:27:04;102183.72;;;19.18;100.00
49030;BME280;43337;52.070;4.508;2023-10-09T09:29:56;102204.28;;;19.32;100.00
49030;BME280;43337;52.070;4.508;2023-10-09T09:32:30;102188.44;;;19.29;100.00
49030;BME280;43337;52.070;4.508;2023-10-09T09:35:03;102208.22;;;19.41;100.00
49030;BME280;43337;52.070;4.508;2023-10-09T09:37:32;102196.63;;;19.42;100.00
49030;BME280;43337;52.070;4.508;2023-10-09T09:40:04;102210.44;;;19.48;100.00
49030;BME280;43337;52.070;4.508;2023-10-09T09:42:49;102204.88;;;19.53;100.00
49030;BME280;43337;52.070;4.508;2023-10-09T09:45:17;102213.56;;;19.57;100.00
49030;BME280;43337;52.070;4.508;2023-10-09T09:47:45;102207.09;;;19.61;100.00
49030;BME280;43337;52.070;4.508;2023-10-09T09:50:17;102193.91;;;19.58;100.00
49030;BME280;43337;52.070;4.508;2023-10-09T09:52:54;102184.53;;;19.50;100.00
49030;BME280;43337;52.070;4.508;2023-10-09T09:55:24;102191.91;;;19.61;100.00
49030;BME280;43337;52.070;4.508;2023-10-09T09:57:56;102194.66;;;19.60;100.00
49030;BME280;43337;52.070;4.508;2023-10-09T10:00:25;102197.19;;;19.63;100.00
49030;BME280;43337;52.070;4.508;2023-10-09T10:03:38;102201.56;;;19.64;100.00
49030;BME280;43337;52.070;4.508;2023-10-09T10:06:08;102207.94;;;19.61;100.00
49030;BME280;43337;52.070;4.508;2023-10-09T10:08:38;102213.91;;;19.66;100.00
49030;BME280;43337;52.070;4.508;2023-10-09T10:11:06;102188.56;;;19.58;100.00
49030;BME280;43337;52.070;4.508;2023-10-09T10:16:14;102214.03;;;19.79;100.00
49030;BME280;43337;52.070;4.508;2023-10-09T10:21:28;102214.75;;;19.97;100.00
49030;BME280;43337;52.070;4.508;2023-10-09T10:23:56;102191.72;;;19.94;100.00
49030;BME280;43337;52.070;4.508;2023-10-09T10:26:31;102179.03;;;19.98;100.00
49030;BME280;43337;52.070;4.508;2023-10-09T10:29:21;102222.16;;;20.22;100.00
49030;BME280;43337;52.070;4.508;2023-10-09T10:31:52;102200.28;;;20.15;100.00
49030;BME280;43337;52.070;4.508;2023-10-09T10:34:20;102214.41;;;20.17;100.00
49030;BME280;43337;52.070;4.508;2023-10-09T10:36:49;102218.53;;;20.23;100.00
49030;BME280;43337;52.070;4.508;2023-10-09T10:39:17;102224.56;;;20.27;100.00
49030;BME280;43337;52.070;4.508;2023-10-09T10:41:57;102213.06;;;20.24;100.00
49030;BME280;43337;52.070;4.508;2023-10-09T10:44:32;102221.31;;;20.36;100.00
49030;BME280;43337;52.070;4.508;2023-10-09T10:47:06;102219.19;;;20.41;100.00
49030;BME280;43337;52.070;4.508;2023-10-09T10:49:48;102222.88;;;20.54;100.00
49030;BME280;43337;52.070;4.508;2023-10-09T10:52:22;102212.34;;;20.51;100.00
49030;BME280;43337;52.070;4.508;2023-10-09T10:55:13;102216.56;;;20.55;100.00
49030;BME280;43337;52.070;4.508;2023-10-09T10:57:44;102221.72;;;20.58;100.00
49030;BME280;43337;52.070;4.508;2023-10-09T11:00:19;102218.75;;;20.63;100.00
49030;BME280;43337;52.070;4.508;2023-10-09T11:03:03;102218.47;;;20.67;100.00
49030;BME280;43337;52.070;4.508;2023-10-09T11:05:45;102210.06;;;20.73;100.00
49030;BME280;43337;52.070;4.508;2023-10-09T11:08:24;102215.97;;;20.79;100.00
49030;BME280;43337;52.070;4.508;2023-10-09T11:10:52;102224.97;;;20.78;100.00
49030;BME280;43337;52.070;4.508;2023-10-09T11:13:23;102223.13;;;20.78;100.00
49030;BME280;43337;52.070;4.508;2023-10-09T11:16:04;102215.97;;;20.79;100.00
49030;BME280;43337;52.070;4.508;2023-10-09T11:18:54;102213.22;;;20.80;100.00
49030;BME280;43337;52.070;4.508;2023-10-09T11:21:22;102213.03;;;20.83;100.00
49030;BME280;43337;52.070;4.508;2023-10-09T11:23:56;102190.81;;;20.81;100.00
49030;BME280;43337;52.070;4.508;2023-10-09T11:26:46;102223.97;;;21.07;100.00
49030;BME280;43337;52.070;4.508;2023-10-09T11:29:19;102196.16;;;20.95;100.00
49030;BME280;43337;52.070;4.508;2023-10-09T11:32:04;102212.00;;;20.98;100.00
49030;BME280;43337;52.070;4.508;2023-10-09T11:34:32;102221.47;;;21.04;100.00
49030;BME280;43337;52.070;4.508;2023-10-09T11:39:30;102227.81;;;21.03;100.00
49030;BME280;43337;52.070;4.508;2023-10-09T11:42:07;102198.56;;;20.86;100.00
49030;BME280;43337;52.070;4.508;2023-10-09T11:44:40;102207.19;;;20.91;100.00
49030;BME280;43337;52.070;4.508;2023-10-09T11:47:11;102213.75;;;20.85;100.00
49030;BME280;43337;52.070;4.508;2023-10-09T11:49:55;102194.09;;;20.72;100.00
49030;BME280;43337;52.070;4.508;2023-10-09T11:52:27;102192.28;;;20.72;100.00
49030;BME280;43337;52.070;4.508;2023-10-09T11:55:11;102208.53;;;20.69;100.00
49030;BME280;43337;52.070;4.508;2023-10-09T11:57:40;102209.56;;;20.67;100.00
49030;BME280;43337;52.070;4.508;2023-10-09T12:00:06;102209.38;;;20.70;100.00
49030;BME280;43337;52.070;4.508;2023-10-09T12:02:51;102198.19;;;20.63;100.00
49030;BME280;43337;52.070;4.508;2023-10-09T12:05:17;102212.06;;;20.70;100.00
49030;BME280;43337;52.070;4.508;2023-10-09T12:07:47;102200.38;;;20.71;100.00
49030;BME280;43337;52.070;4.508;2023-10-09T12:10:21;102200.31;;;20.72;100.00
49030;BME280;43337;52.070;4.508;2023-10-09T12:12:54;102193.31;;;20.70;100.00
49030;BME280;43337;52.070;4.508;2023-10-09T12:15:20;102210.59;;;20.79;100.00
49030;BME280;43337;52.070;4.508;2023-10-09T12:17:46;102210.34;;;20.83;100.00
49030;BME280;43337;52.070;4.508;2023-10-09T12:20:16;102204.69;;;20.88;100.00
49030;BME280;43337;52.070;4.508;2023-10-09T12:23:00;102214.25;;;20.92;100.00
49030;BME280;43337;52.070;4.508;2023-10-09T12:25:26;102212.78;;;21.01;100.00
49030;BME280;43337;52.070;4.508;2023-10-09T12:27:51;102199.94;;;21.06;100.00
49030;BME280;43337;52.070;4.508;2023-10-09T12:30:20;102208.44;;;21.12;100.00
49030;BME280;43337;52.070;4.508;2023-10-09T12:32:55;102198.13;;;21.06;100.00
49030;BME280;43337;52.070;4.508;2023-10-09T12:35:25;102204.44;;;21.05;100.00
49030;BME280;43337;52.070;4.508;2023-10-09T12:37:54;102184.78;;;20.92;100.00
49030;BME280;43337;52.070;4.508;2023-10-09T12:40:22;102193.78;;;20.91;100.00
49030;BME280;43337;52.070;4.508;2023-10-09T12:42:54;102194.84;;;20.88;100.00
49030;BME280;43337;52.070;4.508;2023-10-09T12:45:21;102185.19;;;20.71;100.00
49030;BME280;43337;52.070;4.508;2023-10-09T12:47:54;102208.03;;;20.77;100.00
49030;BME280;43337;52.070;4.508;2023-10-09T12:50:33;102220.88;;;20.72;100.00
49030;BME280;43337;52.070;4.508;2023-10-09T12:52:59;102220.09;;;20.70;100.00
49030;BME280;43337;52.070;4.508;2023-10-09T12:55:34;102184.75;;;20.51;100.00
49030;BME280;43337;52.070;4.508;2023-10-09T12:58:00;102211.59;;;20.63;100.00
49030;BME280;43337;52.070;4.508;2023-10-09T13:00:33;102197.75;;;20.57;100.00
49030;BME280;43337;52.070;4.508;2023-10-09T13:02:59;102196.97;;;20.55;100.00
49030;BME280;43337;52.070;4.508;2023-10-09T13:05:27;102214.75;;;20.70;100.00
49030;BME280;43337;52.070;4.508;2023-10-09T13:07:52;102214.13;;;20.79;100.00
49030;BME280;43337;52.070;4.508;2023-10-09T13:10:23;102203.16;;;20.84;100.00
49030;BME280;43337;52.070;4.508;2023-10-09T13:12:49;102209.56;;;20.95;100.00
49030;BME280;43337;52.070;4.508;2023-10-09T13:15:21;102217.94;;;21.04;100.00
49030;BME280;43337;52.070;4.508;2023-10-09T13:17:47;102200.75;;;20.93;100.00
49030;BME280;43337;52.070;4.508;2023-10-09T13:20:12;102172.28;;;20.78;100.00
49030;BME280;43337;52.070;4.508;2023-10-09T13:22:41;102219.00;;;21.01;100.00
49030;BME280;43337;52.070;4.508;2023-10-09T13:25:09;102212.13;;;20.97;100.00